createdAt,value
2018-11-20T00:01:46.294Z,76.73
2018-11-20T00:04:35.855Z,84.67
2018-11-20T00:07:45.465Z,75.47
2018-11-20T00:10:38.144Z,83.63
2018-11-20T00:13:42.824Z,80.23
2018-11-20T00:16:32.366Z,73.00
2018-11-20T00:19:20.616Z,82.73
2018-11-20T00:22:12.656Z,82.47
2018-11-20T00:25:00.421Z,64.40
2018-11-20T00:27:53.281Z,67.33
2018-11-20T00:30:41.796Z,77.53
2018-11-20T00:33:30.057Z,75.30
2018-11-20T00:36:28.504Z,77.30
2018-11-20T00:39:16.740Z,68.47
2018-11-20T00:41:57.082Z,67.03
2018-11-20T00:44:52.817Z,68.97
2018-11-20T00:47:51.118Z,64.40
2018-11-20T00:50:39.242Z,60.97
2018-11-20T00:53:27.165Z,71.90
2018-11-20T00:57:08.641Z,74.87
2018-11-20T00:59:49.471Z,66.40
2018-11-20T01:02:54.174Z,73.00
2018-11-20T01:05:49.577Z,82.70
2018-11-20T01:08:37.067Z,79.70
2018-11-20T01:11:25.601Z,85.37
2018-11-20T01:14:13.861Z,81.60
2018-11-20T01:17:07.020Z,67.60
2018-11-20T01:20:08.588Z,70.10
2018-11-20T01:22:56.872Z,64.20
2018-11-20T01:25:49.457Z,64.77
2018-11-20T01:28:38.974Z,76.57
2018-11-20T01:31:28.438Z,68.23
2018-11-20T01:34:16.746Z,63.30
2018-11-20T01:36:59.597Z,55.90
2018-11-20T01:39:47.586Z,71.80
2018-11-20T01:42:35.883Z,62.57
2018-11-20T01:45:34.994Z,66.10
2018-11-20T01:48:16.051Z,66.83
2018-11-20T01:51:20.449Z,64.83
2018-11-20T01:54:21.499Z,72.43
2018-11-20T01:57:03.372Z,76.40
2018-11-20T02:00:01.975Z,66.77
2018-11-20T02:02:51.388Z,67.40
2018-11-20T02:05:28.844Z,64.27
2018-11-20T02:08:33.251Z,69.63
2018-11-20T02:11:22.746Z,60.90
2018-11-20T02:14:24.799Z,60.67
2018-11-20T02:17:24.110Z,64.43
2018-11-20T02:20:12.098Z,67.80
2018-11-20T02:23:04.505Z,61.87
2018-11-20T02:25:56.855Z,80.63
2018-11-20T02:28:55.089Z,73.13
2018-11-20T02:31:56.937Z,64.70
2018-11-20T02:34:44.978Z,68.13
2018-11-20T02:37:33.343Z,64.80
2018-11-20T02:40:21.596Z,56.93
2018-11-20T02:43:11.119Z,56.23
2018-11-20T02:46:06.977Z,55.97
2018-11-20T02:49:14.920Z,56.47
2018-11-20T02:52:04.584Z,71.40
2018-11-20T02:54:51.765Z,64.80
2018-11-20T02:57:39.860Z,61.03
2018-11-20T03:00:44.552Z,66.43
2018-11-20T03:03:39.033Z,55.73
2018-11-20T03:06:23.926Z,60.43
2018-11-20T03:09:25.743Z,68.20
2018-11-20T03:12:24.249Z,65.73
2018-11-20T03:15:13.722Z,68.17
2018-11-20T03:18:01.966Z,66.63
2018-11-20T03:21:00.452Z,58.40
2018-11-20T03:23:48.357Z,64.77
2018-11-20T03:26:37.873Z,64.13
2018-11-20T03:30:03.201Z,67.90
2018-11-20T03:32:51.373Z,60.43
2018-11-20T03:35:36.180Z,60.27
2018-11-20T03:38:34.775Z,65.77
2018-11-20T03:41:26.792Z,65.60
2018-11-20T03:44:21.939Z,70.70
2018-11-20T03:47:11.500Z,65.57
2018-11-20T03:50:01.593Z,67.87
2018-11-20T03:52:49.603Z,62.83
2018-11-20T03:55:41.973Z,66.13
2018-11-20T03:58:40.501Z,71.43
2018-11-20T04:01:28.885Z,69.70
2018-11-20T04:04:15.550Z,73.57
2018-11-20T04:07:03.607Z,73.40
2018-11-20T04:09:51.694Z,73.43
2018-11-20T04:12:42.056Z,76.30
2018-11-20T04:15:32.332Z,74.53
2018-11-20T04:18:20.559Z,70.83
2018-11-20T04:21:19.170Z,74.33
2018-11-20T04:24:07.319Z,68.77
2018-11-20T04:27:02.770Z,67.00
2018-11-20T04:30:01.431Z,62.77
2018-11-20T04:32:50.878Z,63.00
2018-11-20T04:35:40.374Z,66.07
2018-11-20T04:38:39.065Z,67.40
2018-11-20T04:41:46.733Z,63.77
2018-11-20T04:44:35.051Z,61.83
2018-11-20T04:47:23.196Z,63.43
2018-11-20T04:50:11.898Z,73.77
2018-11-20T04:53:00.441Z,79.80
2018-11-20T04:55:52.824Z,65.10
2018-11-20T04:58:48.305Z,66.47
2018-11-20T05:01:31.263Z,65.50
2018-11-20T05:04:12.671Z,57.13
2018-11-20T05:07:11.101Z,63.60
2018-11-20T05:10:18.666Z,64.23
2018-11-20T05:13:07.093Z,68.50
2018-11-20T05:15:55.634Z,72.93
2018-11-20T05:18:48.193Z,64.83
2018-11-20T05:21:36.050Z,67.03
2018-11-20T05:24:28.514Z,64.90
2018-11-20T05:27:29.845Z,67.40
2018-11-20T05:30:25.465Z,63.00
2018-11-20T05:33:14.926Z,65.27
2018-11-20T05:36:05.064Z,63.30
2018-11-20T05:38:54.759Z,62.17
2018-11-20T05:41:43.157Z,62.83
2018-11-20T05:44:35.526Z,62.67
2018-11-20T05:47:33.896Z,64.60
2018-11-20T05:50:21.863Z,60.33
2018-11-20T05:53:10.182Z,62.50
2018-11-20T05:55:55.928Z,63.13
2018-11-20T05:58:42.211Z,61.70
2018-11-20T06:01:30.310Z,59.73
2018-11-20T06:04:35.110Z,54.33
2018-11-20T06:07:25.187Z,66.00
2018-11-20T06:10:17.566Z,57.57
2018-11-20T06:13:02.473Z,69.53
2018-11-20T06:15:50.664Z,69.93
2018-11-20T06:18:38.897Z,64.33
2018-11-20T06:21:38.621Z,63.17
2018-11-20T06:24:33.912Z,58.60
2018-11-20T06:27:29.446Z,60.20
2018-11-20T06:30:17.593Z,64.10
2018-11-20T06:33:05.993Z,61.07
2018-11-20T06:35:53.793Z,63.03
2018-11-20T06:38:52.177Z,62.67
2018-11-20T06:41:46.781Z,69.50
2018-11-20T06:44:35.263Z,60.40
2018-11-20T06:47:23.543Z,58.17
2018-11-20T06:50:15.895Z,63.60
2018-11-20T06:53:04.224Z,57.07
2018-11-20T06:55:56.479Z,64.40
2018-11-20T06:58:48.979Z,61.57
2018-11-20T07:01:42.605Z,63.10
2018-11-20T07:04:30.705Z,59.93
2018-11-20T07:07:21.705Z,62.77
2018-11-20T07:10:09.813Z,61.37
2018-11-20T07:13:11.877Z,55.53
2018-11-20T07:16:18.405Z,51.77
2018-11-20T07:19:06.521Z,60.37
2018-11-20T07:21:56.371Z,56.73
2018-11-20T07:24:51.866Z,63.67
2018-11-20T07:27:44.419Z,57.93
2018-11-20T07:30:36.626Z,47.67
2018-11-20T07:33:26.155Z,55.70
2018-11-20T07:36:18.474Z,56.27
2018-11-20T07:39:02.194Z,62.93
2018-11-20T07:41:51.710Z,57.00
2018-11-20T07:44:43.915Z,62.33
2018-11-20T07:47:31.785Z,59.70
2018-11-20T07:50:30.626Z,57.50
2018-11-20T07:53:25.886Z,50.60
2018-11-20T07:56:11.509Z,69.33
2018-11-20T07:58:59.281Z,59.20
2018-11-20T08:01:57.682Z,59.47
2018-11-20T08:04:45.597Z,49.90
2018-11-20T08:07:37.281Z,53.63
2018-11-20T08:10:23.255Z,62.43
2018-11-20T08:13:12.672Z,49.47
2018-11-20T08:16:05.713Z,53.53
2018-11-20T08:18:53.664Z,60.87
2018-11-20T08:21:51.837Z,56.23
2018-11-20T08:24:40.044Z,49.10
2018-11-20T08:27:38.679Z,52.30
2018-11-20T08:30:27.166Z,56.50
2018-11-20T08:33:28.718Z,56.93
2018-11-20T08:36:21.015Z,67.80
2018-11-20T08:39:28.734Z,50.67
2018-11-20T08:42:16.813Z,49.57
2018-11-20T08:45:04.871Z,61.27
2018-11-20T08:47:56.989Z,51.03
2018-11-20T08:50:55.281Z,55.30
2018-11-20T08:53:56.781Z,47.00
2018-11-20T08:56:46.243Z,49.73
2018-11-20T08:59:53.929Z,69.40
2018-11-20T09:02:44.366Z,45.87
2018-11-20T09:05:42.748Z,50.33
2018-11-20T09:08:50.709Z,53.87
2018-11-20T09:11:58.516Z,56.00
2018-11-20T09:14:48.021Z,50.97
2018-11-20T09:17:37.442Z,57.10
2018-11-20T09:20:27.416Z,66.27
2018-11-20T09:23:25.697Z,53.97
2018-11-20T09:26:20.957Z,62.70
2018-11-20T09:29:08.685Z,59.17
2018-11-20T09:32:06.653Z,61.77
2018-11-20T09:35:08.398Z,57.73
2018-11-20T09:38:03.690Z,65.87
2018-11-20T09:41:00.306Z,60.47
2018-11-20T09:44:02.663Z,65.53
2018-11-20T09:47:00.323Z,60.43
2018-11-20T09:49:52.010Z,71.00
2018-11-20T09:52:39.446Z,67.70
2018-11-20T09:55:28.897Z,65.60
2018-11-20T09:58:15.982Z,73.40
2018-11-20T10:01:07.539Z,72.77
2018-11-20T10:04:08.256Z,65.60
2018-11-20T10:06:56.912Z,72.07
2018-11-20T10:09:57.408Z,61.53
2018-11-20T10:13:00.990Z,70.67
2018-11-20T10:15:48.549Z,74.27
2018-11-20T10:18:33.098Z,74.67
2018-11-20T10:21:20.278Z,75.20
2018-11-20T10:24:18.834Z,72.03
2018-11-20T10:27:10.348Z,69.30
2018-11-20T10:30:01.855Z,70.37
2018-11-20T10:32:48.895Z,67.97
2018-11-20T10:35:35.961Z,68.40
2018-11-20T10:38:30.407Z,71.90
2018-11-20T10:41:28.480Z,60.70
2018-11-20T10:44:23.888Z,76.10
2018-11-20T10:47:11.276Z,67.47
2018-11-20T10:49:58.709Z,71.80
2018-11-20T10:52:47.348Z,66.67
2018-11-20T10:55:38.000Z,65.47
2018-11-20T10:58:29.470Z,68.40
2018-11-20T11:01:16.666Z,68.70
2018-11-20T11:04:23.584Z,75.33
2018-11-20T11:06:57.700Z,63.17
2018-11-20T11:09:41.752Z,59.70
2018-11-20T11:12:29.538Z,61.37
2018-11-20T11:15:26.836Z,64.73
2018-11-20T11:18:13.925Z,58.40
2018-11-20T11:21:05.400Z,65.83
2018-11-20T11:23:51.491Z,64.23
2018-11-20T11:26:42.819Z,69.00
2018-11-20T11:29:46.526Z,64.47
2018-11-20T11:32:30.601Z,63.30
2018-11-20T11:35:17.580Z,78.73
2018-11-20T11:38:05.043Z,66.80
2018-11-20T11:40:53.545Z,71.37
2018-11-20T11:43:40.087Z,64.10
2018-11-20T11:46:28.684Z,67.97
2018-11-20T11:49:30.968Z,56.27
2018-11-20T11:52:28.443Z,65.93
2018-11-20T11:55:10.925Z,66.57
2018-11-20T11:58:02.461Z,69.33
2018-11-20T12:00:57.768Z,69.00
2018-11-20T12:03:55.205Z,76.67
2018-11-20T12:07:02.117Z,68.77
2018-11-20T12:09:53.480Z,68.10
2018-11-20T12:12:48.217Z,92.63
2018-11-20T12:15:43.832Z,69.63
2018-11-20T12:18:30.632Z,63.80
2018-11-20T12:21:18.168Z,70.23
2018-11-20T12:24:08.463Z,62.67
2018-11-20T12:27:09.287Z,67.23
2018-11-20T12:29:51.195Z,78.43
2018-11-20T12:32:35.131Z,74.17
2018-11-20T12:35:33.142Z,75.33
2018-11-20T12:38:09.196Z,84.43
2018-11-20T12:40:57.788Z,79.17
2018-11-20T12:43:46.422Z,75.30
2018-11-20T12:46:37.344Z,71.77
2018-11-20T12:49:21.931Z,84.47
2018-11-20T12:52:24.014Z,72.43
2018-11-20T12:55:09.687Z,77.63
2018-11-20T12:58:10.778Z,76.27
2018-11-20T13:00:59.259Z,68.43
2018-11-20T13:03:59.031Z,72.90
2018-11-20T13:06:46.118Z,72.13
2018-11-20T13:09:33.469Z,74.97
2018-11-20T13:12:25.201Z,75.00
2018-11-20T13:15:22.713Z,79.27
2018-11-20T13:18:17.228Z,73.90
2018-11-20T13:21:20.915Z,73.10
2018-11-20T13:24:09.737Z,75.17
2018-11-20T13:26:56.882Z,86.67
2018-11-20T13:30:00.626Z,83.53
2018-11-20T13:32:52.523Z,88.40
2018-11-20T13:35:39.676Z,77.97
2018-11-20T13:38:29.322Z,81.03
2018-11-20T13:41:33.109Z,79.60
2018-11-20T13:44:21.745Z,74.13
2018-11-20T13:47:19.302Z,81.10
2018-11-20T13:50:07.959Z,76.97
2018-11-20T13:52:57.984Z,78.63
2018-11-20T13:55:46.628Z,90.90
2018-11-20T13:58:33.954Z,69.23
2018-11-20T14:01:21.657Z,71.40
2018-11-20T14:04:22.618Z,81.60
2018-11-20T14:07:10.148Z,71.30
2018-11-20T14:10:04.922Z,76.50
2018-11-20T14:12:52.218Z,75.00
2018-11-20T14:15:43.614Z,69.83
2018-11-20T14:18:32.411Z,69.37
2018-11-20T14:21:33.680Z,79.20
2018-11-20T14:24:25.025Z,69.00
2018-11-20T14:27:20.289Z,72.57
2018-11-20T14:30:14.696Z,77.33
2018-11-20T14:33:00.278Z,80.47
2018-11-20T14:35:51.634Z,69.80
2018-11-20T14:38:43.284Z,76.37
2018-11-20T14:41:44.463Z,80.60
2018-11-20T14:44:31.788Z,74.63
2018-11-20T14:47:26.072Z,82.97
2018-11-20T14:50:13.528Z,76.00
2018-11-20T14:53:00.606Z,73.43
2018-11-20T14:55:52.199Z,71.97
2018-11-20T14:58:46.661Z,74.80
2018-11-20T15:01:38.186Z,77.47
2018-11-20T15:04:25.506Z,67.37
2018-11-20T15:07:32.459Z,77.50
2018-11-20T15:10:12.105Z,67.60
2018-11-20T15:13:10.546Z,72.23
2018-11-20T15:16:05.113Z,74.13
2018-11-20T15:18:56.474Z,85.10
2018-11-20T15:21:56.599Z,73.47
2018-11-20T15:24:44.021Z,71.10
2018-11-20T15:27:31.395Z,71.10
2018-11-20T15:30:22.555Z,72.10
2018-11-20T15:33:09.146Z,73.03
2018-11-20T15:36:00.785Z,82.87
2018-11-20T15:39:07.645Z,69.27
2018-11-20T15:42:06.877Z,89.60
2018-11-20T15:44:56.857Z,77.60
2018-11-20T15:47:36.375Z,89.40
2018-11-20T15:50:29.224Z,86.13
2018-11-20T15:53:21.096Z,83.67
2018-11-20T15:56:24.652Z,93.20
2018-11-20T15:59:15.982Z,84.40
2018-11-20T16:02:07.556Z,83.00
2018-11-20T16:05:46.756Z,83.97
2018-11-20T16:08:33.766Z,85.33
2018-11-20T16:11:20.856Z,91.93
2018-11-20T16:14:15.006Z,91.80
2018-11-20T16:17:17.312Z,84.87
2018-11-20T16:20:09.665Z,127.70
2018-11-20T16:23:04.144Z,135.67
2018-11-20T16:26:04.379Z,125.10
2018-11-20T16:28:52.663Z,106.50
2018-11-20T16:31:40.911Z,101.43
2018-11-20T16:34:33.549Z,104.00
2018-11-20T16:37:23.914Z,105.33
2018-11-20T16:40:10.901Z,107.73
2018-11-20T16:42:57.632Z,117.97
2018-11-20T16:45:55.079Z,125.13
2018-11-20T16:48:34.632Z,149.10
2018-11-20T16:51:21.436Z,142.63
2018-11-20T16:54:16.029Z,137.73
2018-11-20T16:57:10.763Z,141.60
2018-11-20T17:00:10.668Z,129.70
2018-11-20T17:03:17.817Z,120.83
2018-11-20T17:06:18.344Z,108.43
2018-11-20T17:09:09.578Z,133.30
2018-11-20T17:12:10.329Z,121.13
2018-11-20T17:14:57.407Z,132.70
2018-11-20T17:17:41.365Z,122.77
2018-11-20T17:20:36.175Z,143.33
2018-11-20T17:23:43.413Z,126.03
2018-11-20T17:26:38.022Z,112.83
2018-11-20T17:29:26.722Z,117.97
2018-11-20T17:32:18.412Z,121.93
2018-11-20T17:35:07.000Z,117.03
2018-11-20T17:38:04.930Z,120.50
2018-11-20T17:40:52.319Z,124.87
2018-11-20T17:43:40.195Z,117.77
2018-11-20T17:46:34.496Z,118.23
2018-11-20T17:49:25.903Z,131.13
2018-11-20T17:52:14.626Z,145.77
2018-11-20T17:55:02.111Z,132.77
2018-11-20T17:57:57.063Z,144.70
2018-11-20T18:00:33.991Z,169.07
2018-11-20T18:03:21.110Z,138.80
2018-11-20T18:06:26.202Z,133.60
2018-11-20T18:09:13.985Z,122.33
2018-11-20T18:12:12.026Z,110.10
2018-11-20T18:14:59.615Z,106.23
2018-11-20T18:18:03.248Z,116.17
2018-11-20T18:21:04.052Z,127.27
2018-11-20T18:24:04.170Z,118.53
2018-11-20T18:26:49.801Z,119.47
2018-11-20T18:29:31.798Z,116.80
2018-11-20T18:32:35.546Z,121.83
2018-11-20T18:35:24.399Z,118.80
2018-11-20T18:38:15.992Z,127.73
2018-11-20T18:41:03.488Z,137.67
2018-11-20T18:43:55.336Z,147.93
2018-11-20T18:46:59.230Z,131.97
2018-11-20T18:49:57.122Z,128.27
2018-11-20T18:52:46.183Z,121.13
2018-11-20T18:55:33.241Z,136.37
2018-11-20T18:58:22.025Z,121.20
2018-11-20T19:01:09.148Z,118.83
2018-11-20T19:04:08.168Z,136.87
2018-11-20T19:06:49.789Z,114.90
2018-11-20T19:09:49.550Z,114.00
2018-11-20T19:12:37.075Z,120.57
2018-11-20T19:15:25.848Z,114.33
2018-11-20T19:18:08.349Z,111.93
2018-11-20T19:20:57.136Z,114.43
2018-11-20T19:23:57.945Z,101.47
2018-11-20T19:26:49.571Z,109.37
2018-11-20T19:29:44.153Z,111.70
2018-11-20T19:32:34.882Z,108.97
2018-11-20T19:35:22.555Z,106.07
2018-11-20T19:38:09.700Z,107.00
2018-11-20T19:40:54.457Z,119.20
2018-11-20T19:43:40.234Z,113.83
2018-11-20T19:46:32.009Z,111.37
2018-11-20T19:49:19.742Z,107.23
2018-11-20T19:52:06.828Z,107.97
2018-11-20T19:55:04.493Z,111.87
2018-11-20T19:57:51.969Z,111.00
2018-11-20T20:00:56.016Z,109.77
2018-11-20T20:03:42.310Z,113.70
2018-11-20T20:06:29.497Z,118.70
2018-11-20T20:09:24.054Z,113.68
2018-11-20T20:12:11.480Z,111.37
2018-11-20T20:15:06.563Z,118.37
2018-11-20T20:18:01.958Z,131.27
2018-11-20T20:20:49.328Z,121.20
2018-11-20T20:23:56.576Z,110.07
2018-11-20T20:26:51.193Z,114.17
2018-11-20T20:29:39.955Z,119.00
2018-11-20T20:32:35.124Z,120.20
2018-11-20T20:35:33.305Z,128.70
2018-11-20T20:38:23.571Z,118.87
2018-11-20T20:41:11.226Z,123.13
2018-11-20T20:43:58.247Z,118.70
2018-11-20T20:46:51.398Z,117.80
2018-11-20T20:49:48.756Z,117.17
2018-11-20T20:52:47.308Z,128.23
2018-11-20T20:55:34.763Z,119.40
2018-11-20T20:58:26.429Z,137.07
2018-11-20T21:01:14.012Z,119.40
2018-11-20T21:04:16.594Z,135.97
2018-11-20T21:07:11.747Z,120.40
2018-11-20T21:09:58.976Z,117.93
2018-11-20T21:12:56.696Z,116.13
2018-11-20T21:15:43.824Z,115.60
2018-11-20T21:18:31.581Z,121.03
2018-11-20T21:21:19.097Z,114.63
2018-11-20T21:24:06.427Z,96.47
2018-11-20T21:26:49.610Z,89.70
2018-11-20T21:29:50.041Z,93.17
2018-11-20T21:32:37.154Z,96.23
2018-11-20T21:35:32.281Z,92.07
2018-11-20T21:38:19.682Z,86.03
2018-11-20T21:41:04.984Z,88.33
2018-11-20T21:44:07.855Z,87.27
2018-11-20T21:47:08.484Z,92.40
2018-11-20T21:49:55.502Z,96.17
2018-11-20T21:52:44.598Z,81.57
2018-11-20T21:55:36.688Z,94.87
2018-11-20T21:58:26.864Z,77.60
2018-11-20T22:01:23.821Z,91.50
2018-11-20T22:04:11.107Z,85.37
2018-11-20T22:06:58.405Z,85.73
2018-11-20T22:09:46.135Z,88.77
2018-11-20T22:12:46.935Z,78.43
2018-11-20T22:15:35.762Z,75.33
2018-11-20T22:18:23.466Z,89.47
2018-11-20T22:21:14.786Z,96.53
2018-11-20T22:24:15.558Z,82.87
2018-11-20T22:27:16.025Z,83.20
2018-11-20T22:30:00.022Z,78.07
2018-11-20T22:32:57.597Z,70.83
2018-11-20T22:35:49.424Z,74.53
2018-11-20T22:38:23.743Z,83.67
2018-11-20T22:41:15.071Z,78.90
2018-11-20T22:44:19.099Z,85.77
2018-11-20T22:47:06.406Z,83.00
2018-11-20T22:49:50.604Z,78.83
2018-11-20T22:52:45.264Z,84.00
2018-11-20T22:55:34.137Z,89.73
2018-11-20T22:58:40.926Z,73.33
2018-11-20T23:01:29.889Z,75.30
2018-11-20T23:04:16.992Z,82.50
2018-11-20T23:07:20.746Z,80.20
2018-11-20T23:09:50.382Z,87.50
2018-11-20T23:12:19.996Z,71.30
2018-11-20T23:14:49.563Z,78.70
2018-11-20T23:17:19.293Z,85.43
2018-11-20T23:19:48.982Z,84.23
2018-11-20T23:22:18.936Z,85.07
2018-11-20T23:24:48.517Z,86.20
2018-11-20T23:27:18.147Z,101.27
2018-11-20T23:29:47.752Z,88.40
2018-11-20T23:32:17.359Z,82.77
2018-11-20T23:34:47.052Z,82.30
2018-11-20T23:37:16.665Z,82.33
2018-11-20T23:40:39.299Z,75.43
2018-11-20T23:43:08.999Z,75.23
2018-11-20T23:45:38.931Z,62.33
2018-11-20T23:48:08.627Z,69.57
2018-11-20T23:50:38.391Z,68.03
2018-11-20T23:53:07.945Z,81.23
2018-11-20T23:55:37.803Z,74.07
2018-11-20T23:58:07.570Z,80.87
